Time;durP1;ratioP1;P1;durP2;ratioP2;P2;SDS_P1;SDS_P2;PMS_P1;PMS_P2;Temp;Humidity;BMP_temperature;BMP_pressure;BME280_temperature;BME280_humidity;BME280_pressure;Samples;Min_cycle;Max_cycle;Signal;HPM_P1;HPM_P2
2022/04/26 03:37:19;;;;;;;11.10;6.93;;;;;;;5.96;100.00;98434.28;4484276;31;20084;-71
2022/04/26 03:39:46;;;;;;;11.32;6.70;;;;;;;5.94;100.00;98434.38;4483947;31;20581;-71
2022/04/26 03:42:14;;;;;;;16.33;7.15;;;;;;;5.94;100.00;98455.19;4484296;31;20083;-71
2022/04/26 03:44:42;;;;;;;14.40;7.35;;;;;;;5.85;100.00;98448.91;4484212;31;20123;-71
2022/04/26 03:47:10;;;;;;;14.43;7.18;;;;;;;5.82;100.00;98456.13;4486001;31;20096;-71
2022/04/26 03:49:37;;;;;;;11.18;6.78;;;;;;;5.81;100.00;98455.28;4486304;31;20100;-71
2022/04/26 03:52:05;;;;;;;14.50;7.70;;;;;;;5.77;100.00;98459.06;4486153;31;20152;-71
2022/04/26 03:54:33;;;;;;;12.45;6.90;;;;;;;5.73;100.00;98459.41;4486225;31;20168;-71
2022/04/26 03:57:01;;;;;;;14.52;7.30;;;;;;;5.75;100.00;98468.72;4485968;31;20470;-71
2022/04/26 03:59:28;;;;;;;11.35;7.47;;;;;;;5.75;100.00;98473.91;4486193;31;20108;-71
2022/04/26 04:01:56;;;;;;;13.18;7.40;;;;;;;5.74;100.00;98485.28;4485836;31;20160;-71
2022/04/26 04:04:23;;;;;;;12.20;6.22;;;;;;;5.74;100.00;98482.69;4485511;31;20088;-71
2022/04/26 04:06:50;;;;;;;12.02;6.93;;;;;;;5.75;100.00;98486.91;4485521;31;20088;-71
2022/04/26 04:09:18;;;;;;;12.05;7.03;;;;;;;5.76;100.00;98483.38;4485902;31;20165;-71
2022/04/26 04:11:45;;;;;;;12.18;7.60;;;;;;;5.79;100.00;98485.75;4485930;31;20123;-71
2022/04/26 04:14:14;;;;;;;11.93;7.03;;;;;;;5.82;100.00;98480.31;4485977;31;20477;-71
2022/04/26 04:16:41;;;;;;;10.32;6.72;;;;;;;5.89;100.00;98487.66;4486284;32;20088;-71
2022/04/26 04:19:17;;;;;;;11.70;7.15;;;;;;;5.89;100.00;98488.50;4485928;31;20115;-71
2022/04/26 04:21:45;;;;;;;12.50;6.68;;;;;;;5.97;100.00;98483.59;4485646;31;20351;-71
2022/04/26 04:24:14;;;;;;;12.30;6.45;;;;;;;6.06;100.00;98486.44;4485800;31;20092;-71
2022/04/26 04:26:42;;;;;;;10.48;6.20;;;;;;;6.11;100.00;98495.56;4469379;31;20093;-71
2022/04/26 04:29:09;;;;;;;10.90;6.50;;;;;;;6.19;100.00;98498.41;4485556;31;20139;-71
2022/04/26 04:31:37;;;;;;;11.55;6.10;;;;;;;6.25;100.00;98504.91;4483595;31;20155;-71
2022/04/26 04:34:04;;;;;;;13.35;6.43;;;;;;;6.36;100.00;98504.12;4484651;31;20656;-71
2022/04/26 04:36:32;;;;;;;12.02;6.80;;;;;;;6.47;100.00;98501.50;4476529;32;20084;-71
2022/04/26 04:38:59;;;;;;;11.48;6.65;;;;;;;6.62;100.00;98509.91;4484817;32;20479;-71
2022/04/26 04:41:27;;;;;;;11.90;7.15;;;;;;;6.67;100.00;98514.75;4483846;31;20095;-71
2022/04/26 04:43:54;;;;;;;11.45;6.75;;;;;;;6.62;100.00;98514.31;4481984;31;20165;-71
2022/04/26 04:46:22;;;;;;;14.95;7.80;;;;;;;6.78;100.00;98519.12;4483176;32;20097;-71
2022/04/26 04:48:49;;;;;;;12.45;6.78;;;;;;;6.74;100.00;98516.78;4484317;31;20445;-71
2022/04/26 04:51:16;;;;;;;11.60;7.15;;;;;;;6.74;100.00;98527.19;4483726;32;20118;-71
2022/04/26 04:53:43;;;;;;;13.82;8.57;;;;;;;6.75;100.00;98522.78;4485004;31;20127;-71
2022/04/26 04:56:11;;;;;;;9.27;6.62;;;;;;;6.78;100.00;98522.56;4484655;31;20153;-71
2022/04/26 04:58:38;;;;;;;12.98;7.12;;;;;;;6.82;100.00;98529.19;4482750;31;20697;-71
2022/04/26 05:01:06;;;;;;;10.00;6.80;;;;;;;6.87;100.00;98532.28;4477219;31;20402;-71
2022/04/26 05:03:33;;;;;;;13.50;7.32;;;;;;;6.98;100.00;98538.41;4479301;32;20157;-71
2022/04/26 05:06:00;;;;;;;11.90;6.95;;;;;;;7.07;100.00;98532.47;4470388;32;20097;-72
2022/04/26 05:08:28;;;;;;;12.55;6.32;;;;;;;7.11;100.00;98539.09;4474610;31;20116;-72
2022/04/26 05:10:55;;;;;;;11.12;6.85;;;;;;;7.18;100.00;98545.50;4475232;31;20505;-72
2022/04/26 05:13:25;;;;;;;9.88;6.87;;;;;;;7.22;100.00;98546.06;4481419;32;20096;-71
2022/04/26 05:15:52;;;;;;;12.63;6.53;;;;;;;7.08;100.00;98549.78;4480979;31;20080;-72
2022/04/26 05:18:19;;;;;;;9.77;7.05;;;;;;;7.22;100.00;98552.13;4482928;32;20092;-72
2022/04/26 05:20:46;;;;;;;9.18;5.87;;;;;;;7.20;100.00;98561.81;4482629;32;20096;-72
2022/04/26 05:25:59;;;;;;;10.27;6.12;;;;;;;7.46;100.00;98556.31;4481841;31;20137;-72
2022/04/26 05:28:29;;;;;;;10.10;6.03;;;;;;;7.51;100.00;98572.44;4473364;32;20116;-72
2022/04/26 05:30:56;;;;;;;11.35;6.32;;;;;;;7.43;100.00;98572.22;4477415;32;20084;-72
2022/04/26 05:33:26;;;;;;;10.48;6.85;;;;;;;7.60;100.00;98561.28;4482777;31;20101;-71
2022/04/26 05:35:53;;;;;;;13.50;7.32;;;;;;;7.52;100.00;98568.87;4477647;32;20528;-72
2022/04/26 05:38:20;;;;;;;10.68;6.25;;;;;;;7.62;100.00;98568.97;4481472;32;20131;-71
2022/04/26 05:40:49;;;;;;;10.38;6.05;;;;;;;7.72;100.00;98566.44;4480412;31;20149;-72
2022/04/26 05:43:17;;;;;;;11.05;6.72;;;;;;;7.84;100.00;98573.25;4481046;32;20115;-72
2022/04/26 05:45:44;;;;;;;10.23;6.50;;;;;;;7.89;100.00;98571.13;4483179;31;20080;-72
2022/04/26 05:48:13;;;;;;;11.30;7.22;;;;;;;7.96;100.00;98567.06;4478006;32;20548;-72
2022/04/26 05:50:41;;;;;;;12.00;7.00;;;;;;;8.14;100.00;98574.31;4477154;32;20470;-72
2022/04/26 05:53:08;;;;;;;10.55;6.68;;;;;;;8.19;100.00;98574.78;4480604;32;20104;-72
2022/04/26 05:55:38;;;;;;;12.55;6.65;;;;;;;8.17;99.92;98579.28;4480409;31;20468;-72
2022/04/26 05:58:06;;;;;;;10.48;6.43;;;;;;;8.16;100.00;98570.66;4473943;32;20108;-71
2022/04/26 06:00:33;;;;;;;11.82;6.68;;;;;;;8.20;100.00;98576.44;4478330;32;20481;-72
2022/04/26 06:03:01;;;;;;;9.80;7.05;;;;;;;8.39;100.00;98578.34;4472278;31;107835;-71
2022/04/26 06:05:29;;;;;;;9.13;6.07;;;;;;;8.48;98.63;98577.59;4476817;32;20484;-71
2022/04/26 06:07:56;;;;;;;13.80;7.05;;;;;;;8.45;98.08;98579.66;4479039;31;20084;-73
2022/04/26 06:10:24;;;;;;;10.13;6.05;;;;;;;8.48;99.31;98584.63;4481606;31;20150;-73
2022/04/26 06:12:52;;;;;;;10.13;6.25;;;;;;;8.62;97.25;98578.25;4480933;31;20100;-72
2022/04/26 06:15:21;;;;;;;10.75;6.40;;;;;;;8.69;96.82;98580.19;4481347;32;20572;-72
2022/04/26 06:17:48;;;;;;;10.27;6.53;;;;;;;8.84;96.59;98580.69;4475567;31;20139;-73
2022/04/26 06:20:16;;;;;;;11.43;6.95;;;;;;;9.05;95.32;98575.41;4473913;31;20144;-73
2022/04/26 06:22:44;;;;;;;8.52;5.62;;;;;;;9.12;95.35;98582.72;4478366;32;20123;-72
2022/04/26 06:25:11;;;;;;;10.18;5.90;;;;;;;9.19;93.51;98570.75;4480705;31;20488;-72
2022/04/26 06:27:39;;;;;;;7.70;4.72;;;;;;;9.21;92.45;98574.06;4476867;31;20864;-72
2022/04/26 06:30:06;;;;;;;10.30;6.00;;;;;;;9.20;92.10;98572.41;4462730;32;20751;-72
2022/04/26 06:32:34;;;;;;;9.05;5.10;;;;;;;9.23;91.87;98577.38;4478678;31;20505;-72
2022/04/26 06:35:01;;;;;;;9.40;5.95;;;;;;;9.44;91.54;98573.88;4483947;31;20101;-72
2022/04/26 06:37:29;;;;;;;7.30;5.32;;;;;;;9.66;90.78;98578.00;4481737;31;20127;-71
2022/04/26 06:39:56;;;;;;;8.35;4.97;;;;;;;9.64;89.20;98569.47;4481003;32;20100;-73
2022/04/26 06:42:23;;;;;;;8.77;5.25;;;;;;;9.55;89.58;98584.19;4481878;31;20135;-71
2022/04/26 06:44:50;;;;;;;8.63;5.68;;;;;;;9.50;87.86;98581.97;4479428;31;20107;-72
2022/04/26 06:47:18;;;;;;;9.35;6.18;;;;;;;9.61;89.80;98581.03;4482394;31;20458;-73
2022/04/26 06:49:45;;;;;;;9.48;4.93;;;;;;;9.81;89.58;98579.28;4478303;31;20121;-74
2022/04/26 06:52:12;;;;;;;8.38;5.43;;;;;;;10.04;87.37;98597.34;4481285;31;20089;-73
2022/04/26 06:54:40;;;;;;;9.70;5.68;;;;;;;10.11;87.57;98594.03;4479744;31;20130;-74
2022/04/26 06:57:08;;;;;;;7.55;5.60;;;;;;;10.11;86.51;98599.25;4483903;31;20096;-74
2022/04/26 06:59:35;;;;;;;7.57;5.03;;;;;;;10.37;86.97;98600.50;4483014;31;20100;-72
2022/04/26 07:02:03;;;;;;;8.88;5.25;;;;;;;10.40;86.36;98601.06;4484916;31;20100;-72
2022/04/26 07:04:30;;;;;;;6.80;4.37;;;;;;;10.52;84.04;98606.13;4480769;31;20124;-72
2022/04/26 07:06:58;;;;;;;6.85;4.25;;;;;;;10.45;80.72;98600.63;4499254;31;20087;-74
2022/04/26 07:09:26;;;;;;;8.23;5.40;;;;;;;10.53;82.68;98600.75;4485663;31;20096;-72
2022/04/26 07:11:53;;;;;;;7.68;4.37;;;;;;;10.67;82.39;98609.13;4471523;31;20096;-72
2022/04/26 07:14:20;;;;;;;7.05;4.43;;;;;;;10.73;80.98;98603.31;4484800;31;20136;-73
2022/04/26 07:16:49;;;;;;;7.28;4.37;;;;;;;10.84;81.76;98605.78;4480142;32;20224;-72
2022/04/26 07:19:17;;;;;;;7.82;4.78;;;;;;;10.94;80.24;98613.59;4481361;31;20461;-72
2022/04/26 07:21:46;;;;;;;7.25;5.00;;;;;;;10.86;80.67;98613.50;4474181;31;20164;-73
2022/04/26 07:24:32;;;;;;;7.47;4.35;;;;;;;10.97;78.78;98608.88;4473055;31;20159;-72
2022/04/26 07:27:00;;;;;;;7.85;4.72;;;;;;;11.22;77.35;98606.59;4482604;31;20132;-71
2022/04/26 07:29:27;;;;;;;7.07;4.65;;;;;;;11.18;78.73;98607.84;4485052;31;20583;-72
2022/04/26 07:31:55;;;;;;;7.53;4.90;;;;;;;11.33;78.97;98609.00;4478632;32;20131;-73
2022/04/26 07:34:25;;;;;;;7.32;4.50;;;;;;;11.39;78.73;98612.84;4483629;31;20092;-73
2022/04/26 07:37:02;;;;;;;6.78;4.40;;;;;;;11.42;76.22;98615.19;4479887;31;20121;-73
2022/04/26 07:39:30;;;;;;;6.82;4.57;;;;;;;11.47;77.33;98615.56;4491077;31;20087;-72
2022/04/26 07:41:58;;;;;;;8.38;5.82;;;;;;;11.65;75.98;98612.16;4481869;31;20088;-74
2022/04/26 07:44:26;;;;;;;7.65;5.28;;;;;;;11.90;77.00;98613.25;4468772;32;20081;-74
2022/04/26 07:46:54;;;;;;;7.22;4.80;;;;;;;12.06;74.98;98618.66;4478280;32;20108;-74
2022/04/26 07:49:23;;;;;;;6.62;3.67;;;;;;;12.31;75.67;98620.66;4477360;32;20112;-73
2022/04/26 07:51:51;;;;;;;11.02;4.75;;;;;;;12.18;70.91;98624.50;4487242;31;20084;-73
2022/04/26 07:54:19;;;;;;;7.95;4.82;;;;;;;12.27;73.87;98620.16;4476966;32;20470;-74
2022/04/26 07:56:46;;;;;;;9.00;5.25;;;;;;;12.34;74.00;98629.09;4479580;31;20157;-73
2022/04/26 07:59:14;;;;;;;5.45;3.47;;;;;;;12.43;73.72;98627.34;4474288;31;20138;-73
2022/04/26 08:01:42;;;;;;;6.55;3.90;;;;;;;12.40;68.98;98631.09;4476921;32;20153;-73
2022/04/26 08:04:10;;;;;;;4.93;3.90;;;;;;;12.49;68.62;98637.25;4480276;32;20104;-73
2022/04/26 08:06:37;;;;;;;8.02;4.90;;;;;;;12.54;69.56;98636.78;4475497;31;20104;-73
2022/04/26 08:09:04;;;;;;;6.15;3.35;;;;;;;12.73;71.81;98644.50;4478123;32;20088;-73
2022/04/26 08:11:31;;;;;;;6.55;3.70;;;;;;;12.83;66.96;98641.75;4481283;31;20134;-73
2022/04/26 08:13:59;;;;;;;3.55;2.72;;;;;;;12.86;65.35;98641.44;4477027;31;20126;-73
2022/04/26 08:16:26;;;;;;;3.72;2.80;;;;;;;12.99;64.45;98645.44;4476995;31;20755;-74
2022/04/26 08:18:53;;;;;;;5.70;4.05;;;;;;;12.96;62.32;98639.53;4471335;32;20108;-73
2022/04/26 08:21:22;;;;;;;6.07;3.80;;;;;;;13.10;66.28;98637.31;4466899;32;20886;-73
2022/04/26 08:29:22;;;;;;;2.25;1.65;;;;;;;13.27;61.87;98646.09;4477656;32;20096;-74
2022/04/26 08:31:49;;;;;;;4.25;2.25;;;;;;;13.37;56.18;98652.09;4482401;31;20438;-74
2022/04/26 08:34:17;;;;;;;3.67;2.90;;;;;;;13.36;57.94;98658.34;4482021;31;20495;-74
2022/04/26 08:36:44;;;;;;;4.97;2.50;;;;;;;13.32;58.48;98655.19;4483303;31;20096;-74
2022/04/26 08:39:11;;;;;;;4.82;2.37;;;;;;;13.50;59.24;98656.91;4483579;31;20582;-74
2022/04/26 08:41:38;;;;;;;3.60;1.90;;;;;;;13.62;59.15;98660.09;4482229;31;20753;-74
2022/04/26 08:44:09;;;;;;;2.25;1.40;;;;;;;13.65;57.69;98657.94;4476245;32;20138;-74
2022/04/26 08:52:10;;;;;;;2.37;1.40;;;;;;;13.68;57.50;98656.00;4484935;31;20097;-74
2022/04/26 08:54:37;;;;;;;2.12;1.67;;;;;;;13.84;55.62;98656.06;4483528;31;20077;-73
2022/04/26 08:57:12;;;;;;;4.35;3.12;;;;;;;13.84;54.11;98663.94;4472601;31;20135;-73
2022/04/26 08:59:50;;;;;;;5.65;2.70;;;;;;;13.93;58.75;98665.63;4479215;31;20088;-74
2022/04/26 09:02:22;;;;;;;4.72;2.85;;;;;;;13.97;58.31;98659.06;4478069;31;20157;-74
2022/04/26 09:04:51;;;;;;;10.63;3.92;;;;;;;14.18;58.68;98663.00;4478189;31;20464;-74
2022/04/26 09:07:45;;;;;;;3.55;2.42;;;;;;;14.24;58.01;98659.72;4481425;31;20120;-74
2022/04/26 09:10:15;;;;;;;3.33;2.10;;;;;;;14.16;54.66;98659.72;4479691;31;20095;-74
2022/04/26 09:13:04;;;;;;;4.05;2.53;;;;;;;14.34;54.26;98657.75;4482286;32;20100;-74
2022/04/26 09:15:39;;;;;;;3.85;2.58;;;;;;;14.25;54.47;98664.03;4485195;31;20148;-74
2022/04/26 09:18:22;;;;;;;4.50;2.95;;;;;;;14.20;55.42;98661.03;4472120;32;20750;-74
2022/04/26 09:20:52;;;;;;;4.72;2.70;;;;;;;14.42;56.30;98661.41;4478340;31;20131;-74
2022/04/26 09:23:20;;;;;;;3.60;2.28;;;;;;;14.65;57.11;98666.84;4478071;32;20126;-74
2022/04/26 09:25:51;;;;;;;7.40;2.28;;;;;;;14.61;53.72;98662.91;4483548;31;20118;-74
2022/04/26 09:28:27;;;;;;;3.65;2.22;;;;;;;14.72;52.77;98671.28;4479121;32;20112;-75
2022/04/26 09:30:55;;;;;;;5.70;2.77;;;;;;;14.81;52.28;98664.22;4479995;31;20390;-75
2022/04/26 09:33:38;;;;;;;6.03;2.83;;;;;;;14.71;54.11;98668.81;4476462;31;20119;-74
2022/04/26 09:36:09;;;;;;;2.85;2.45;;;;;;;14.71;51.94;98661.72;4487205;31;20088;-75
2022/04/26 09:38:37;;;;;;;4.90;2.78;;;;;;;14.98;52.70;98658.91;4484301;31;20104;-74
2022/04/26 09:41:09;;;;;;;6.32;2.58;;;;;;;14.95;51.57;98665.34;4479446;32;20108;-74
2022/04/26 09:43:37;;;;;;;3.42;2.35;;;;;;;14.83;53.29;98664.84;4476687;32;20097;-75
2022/04/26 09:46:05;;;;;;;3.75;2.30;;;;;;;14.82;52.62;98663.22;4477269;32;20111;-74
2022/04/26 09:48:37;;;;;;;2.97;2.25;;;;;;;15.13;52.59;98661.69;4475013;32;20126;-75
2022/04/26 09:51:06;;;;;;;3.65;2.42;;;;;;;15.31;53.22;98656.19;4483868;31;20594;-72
2022/04/26 09:53:33;;;;;;;3.80;3.05;;;;;;;15.39;51.17;98656.97;4478159;31;20115;-75
2022/04/26 09:56:03;;;;;;;5.43;2.30;;;;;;;15.40;52.71;98657.81;4480091;31;20110;-73
2022/04/26 09:58:48;;;;;;;6.68;2.80;;;;;;;15.48;52.21;98655.12;4483098;31;20085;-73
2022/04/26 10:01:15;;;;;;;2.72;2.35;;;;;;;15.95;51.30;98650.78;4475485;32;20101;-74
2022/04/26 10:03:46;;;;;;;6.25;3.00;;;;;;;16.05;49.55;98658.47;4472058;32;20486;-73
2022/04/26 10:06:16;;;;;;;5.28;3.47;;;;;;;15.92;51.00;98657.22;4479450;32;20096;-72
2022/04/26 10:08:45;;;;;;;4.32;2.90;;;;;;;15.67;50.93;98653.88;4483949;31;20127;-74
2022/04/26 10:11:12;;;;;;;3.83;2.67;;;;;;;15.69;51.50;98654.53;4459562;32;20841;-73
2022/04/26 10:13:42;;;;;;;4.50;2.92;;;;;;;15.88;51.48;98660.41;4474009;32;20108;-74
2022/04/26 10:16:12;;;;;;;4.35;2.78;;;;;;;16.20;49.92;98655.91;4478694;32;20104;-74
2022/04/26 10:18:44;;;;;;;5.30;3.08;;;;;;;16.24;51.42;98646.63;4478352;32;20097;-75
2022/04/26 10:21:32;;;;;;;3.42;2.35;;;;;;;16.47;49.92;98636.87;4480620;31;20115;-73
2022/04/26 10:24:03;;;;;;;3.90;2.90;;;;;;;16.48;49.63;98633.22;4483470;31;20096;-73
2022/04/26 10:26:33;;;;;;;3.90;2.62;;;;;;;16.21;50.32;98625.84;4469842;32;20089;-73
2022/04/26 10:29:07;;;;;;;4.18;2.80;;;;;;;16.17;49.90;98632.47;4478898;32;20382;-72
2022/04/26 10:31:39;;;;;;;4.05;2.20;;;;;;;16.38;51.64;98629.16;4482209;32;20163;-73
2022/04/26 10:34:20;;;;;;;6.47;3.22;;;;;;;16.47;51.62;98631.59;4482690;31;20084;-73
2022/04/26 10:36:48;;;;;;;3.85;2.70;;;;;;;16.32;50.30;98633.34;4476528;31;20101;-73
2022/04/26 10:39:31;;;;;;;4.07;2.70;;;;;;;16.60;49.70;98627.50;4477172;32;20108;-72
2022/04/26 10:42:02;;;;;;;3.87;3.12;;;;;;;16.45;50.26;98625.62;4479634;32;20152;-72
2022/04/26 10:44:32;;;;;;;4.05;3.03;;;;;;;16.64;49.36;98620.87;4477642;32;20119;-72
2022/04/26 10:47:02;;;;;;;3.55;2.80;;;;;;;16.68;49.67;98622.13;4480978;31;20114;-72
2022/04/26 10:49:33;;;;;;;3.60;2.62;;;;;;;16.81;51.04;98627.63;4482812;32;20701;-71
2022/04/26 10:52:22;;;;;;;5.10;2.65;;;;;;;16.72;51.54;98614.66;4475730;32;20188;-73
2022/04/26 10:55:07;;;;;;;4.37;2.80;;;;;;;16.83;50.46;98619.50;4475988;31;20132;-73
2022/04/26 10:57:36;;;;;;;5.78;2.70;;;;;;;16.96;50.41;98622.37;4479503;32;20163;-72
2022/04/26 11:00:11;;;;;;;4.32;2.83;;;;;;;17.02;49.73;98618.19;4479648;31;20127;-72
2022/04/26 11:02:40;;;;;;;3.67;2.87;;;;;;;16.89;49.45;98625.94;4479068;32;20096;-70
2022/04/26 11:05:11;;;;;;;5.72;3.22;;;;;;;16.67;51.17;98628.44;4480816;32;20135;-69
2022/04/26 11:07:42;;;;;;;5.50;3.12;;;;;;;16.81;52.02;98624.97;4480173;32;20104;-70
2022/04/26 11:10:11;;;;;;;3.67;2.53;;;;;;;16.83;51.20;98617.66;4480818;32;20154;-70
2022/04/26 11:12:39;;;;;;;3.20;2.60;;;;;;;16.70;50.71;98620.13;4479328;32;20123;-69
2022/04/26 11:15:14;;;;;;;3.20;2.60;;;;;;;16.94;51.29;98623.56;4481563;32;20108;-71
2022/04/26 11:17:43;;;;;;;4.53;3.25;;;;;;;16.85;51.48;98628.06;4480961;31;20354;-71
2022/04/26 11:20:16;;;;;;;3.72;2.95;;;;;;;17.03;51.04;98627.75;4478783;31;20127;-72
2022/04/26 11:22:49;;;;;;;4.45;3.00;;;;;;;17.04;48.58;98621.47;4480662;31;20489;-70
2022/04/26 11:28:06;;;;;;;4.50;3.10;;;;;;;17.43;48.77;98627.47;4482097;32;20088;-70
2022/04/26 11:30:42;;;;;;;3.97;3.00;;;;;;;17.37;50.13;98629.03;4483653;31;20096;-70
2022/04/26 11:33:12;;;;;;;5.47;3.17;;;;;;;17.80;46.83;98626.47;4482665;31;20178;-71
2022/04/26 11:35:41;;;;;;;4.30;2.80;;;;;;;17.90;46.15;98618.25;4480835;32;20108;-71
2022/04/26 11:38:09;;;;;;;4.37;3.37;;;;;;;17.96;47.67;98622.00;4486487;31;20115;-71
2022/04/26 11:40:41;;;;;;;5.78;2.53;;;;;;;17.79;45.93;98624.84;4482914;31;20151;-71
2022/04/26 11:43:20;;;;;;;8.23;3.17;;;;;;;17.90;47.55;98623.56;4481314;31;20439;-69
2022/04/26 11:45:50;;;;;;;4.30;2.90;;;;;;;17.55;46.95;98618.88;4480294;31;20091;-70
2022/04/26 11:48:19;;;;;;;7.70;3.10;;;;;;;17.87;47.15;98623.91;4479114;32;20438;-70
2022/04/26 11:50:48;;;;;;;4.15;3.30;;;;;;;18.03;46.46;98622.88;4474940;32;20104;-70
2022/04/26 11:53:17;;;;;;;4.30;2.87;;;;;;;18.33;44.63;98617.44;4469734;32;20840;-70
2022/04/26 11:55:47;;;;;;;3.50;2.50;;;;;;;18.37;45.89;98616.84;4479014;32;20126;-70
2022/04/26 11:58:18;;;;;;;3.70;2.50;;;;;;;18.56;46.25;98604.78;4477472;32;20096;-70
2022/04/26 12:01:07;;;;;;;4.62;3.30;;;;;;;18.60;45.82;98607.84;4475459;31;20101;-70
2022/04/26 12:03:44;;;;;;;3.53;2.65;;;;;;;18.05;45.24;98610.25;4479734;32;20155;-70
2022/04/26 12:06:13;;;;;;;5.85;2.90;;;;;;;17.90;45.16;98613.78;4472484;32;20096;-70
2022/04/26 12:08:45;;;;;;;3.40;2.65;;;;;;;18.32;45.64;98606.03;4482400;32;20088;-70
2022/04/26 12:11:23;;;;;;;5.85;2.53;;;;;;;18.03;46.11;98605.16;4478409;31;20105;-70
2022/04/26 12:13:59;;;;;;;3.10;2.70;;;;;;;17.84;47.03;98611.84;4478679;32;20096;-70
2022/04/26 12:16:28;;;;;;;4.85;2.80;;;;;;;18.14;45.98;98608.28;4477713;31;20088;-70
2022/04/26 12:18:58;;;;;;;4.78;2.45;;;;;;;18.41;45.20;98604.03;4479862;32;20115;-71
2022/04/26 12:21:26;;;;;;;4.82;2.42;;;;;;;18.81;45.31;98599.03;4482912;31;20162;-70
2022/04/26 12:24:16;;;;;;;3.22;2.45;;;;;;;19.07;42.63;98598.37;4483028;31;20118;-71
2022/04/26 12:26:58;;;;;;;3.58;2.87;;;;;;;18.98;43.84;98602.22;4484160;31;20115;-70
2022/04/26 12:29:26;;;;;;;3.65;2.95;;;;;;;18.75;43.78;98590.00;4481468;31;20231;-71
2022/04/26 12:31:53;;;;;;;3.62;2.90;;;;;;;18.77;43.80;98593.28;4478677;32;20100;-71
2022/04/26 12:34:26;;;;;;;3.47;2.78;;;;;;;18.42;44.12;98589.75;4483982;31;20122;-70
2022/04/26 12:37:08;;;;;;;4.22;2.30;;;;;;;18.07;44.58;98587.03;4479451;32;20461;-70
2022/04/26 12:39:38;;;;;;;2.97;2.25;;;;;;;18.44;45.32;98577.16;4477230;32;20088;-70
2022/04/26 12:42:07;;;;;;;3.55;2.80;;;;;;;19.36;44.04;98577.06;4480717;32;20139;-70
2022/04/26 12:44:39;;;;;;;5.03;2.80;;;;;;;19.64;41.54;98577.78;4477713;32;20096;-70
2022/04/26 12:50:33;;;;;;;9.05;3.12;;;;;;;20.17;42.49;98568.28;4484761;31;20092;-70
2022/04/26 12:53:06;;;;;;;2.97;2.15;;;;;;;19.60;42.46;98571.22;4482521;31;20112;-71
2022/04/26 12:55:35;;;;;;;5.70;3.10;;;;;;;18.90;43.50;98565.22;4485097;31;20084;-71
2022/04/26 12:58:06;;;;;;;9.25;2.97;;;;;;;18.24;44.55;98571.66;4481145;31;20080;-71
2022/04/26 13:00:52;;;;;;;6.35;3.12;;;;;;;17.88;45.54;98576.00;4473098;32;20145;-70
2022/04/26 13:03:21;;;;;;;3.55;2.75;;;;;;;17.84;46.38;98577.41;4480616;32;20168;-72
2022/04/26 13:06:04;;;;;;;8.18;3.60;;;;;;;18.00;46.49;98573.72;4482407;32;20567;-72
2022/04/26 13:08:52;;;;;;;6.05;3.55;;;;;;;17.95;45.31;98568.16;4482187;32;20147;-70
2022/04/26 13:11:19;;;;;;;6.55;3.08;;;;;;;17.90;46.47;98568.72;4482335;31;20101;-69
2022/04/26 13:13:48;;;;;;;5.07;3.12;;;;;;;18.02;46.30;98573.53;4481076;32;20165;-71
2022/04/26 13:16:17;;;;;;;5.75;3.03;;;;;;;18.27;45.66;98573.94;4482100;32;20389;-71
2022/04/26 13:18:45;;;;;;;4.32;2.92;;;;;;;18.62;44.92;98564.22;4483508;31;20114;-71
2022/04/26 13:21:13;;;;;;;5.57;2.78;;;;;;;19.02;44.04;98568.16;4476546;32;20119;-71
2022/04/26 13:23:41;;;;;;;5.20;2.85;;;;;;;18.86;43.08;98563.97;4478278;32;20120;-71
2022/04/26 13:26:08;;;;;;;3.40;2.55;;;;;;;19.23;42.98;98569.84;4472977;31;20118;-72
2022/04/26 13:28:35;;;;;;;3.42;2.55;;;;;;;19.53;42.02;98570.41;4474945;32;20092;-71
2022/04/26 13:31:10;;;;;;;4.45;2.70;;;;;;;19.66;41.08;98567.75;4482563;32;20100;-71
2022/04/26 13:33:37;;;;;;;3.55;2.90;;;;;;;19.83;41.22;98564.75;4469392;32;20081;-71
2022/04/26 13:36:05;;;;;;;5.97;2.50;;;;;;;19.45;41.64;98562.59;4480198;32;20155;-71
2022/04/26 13:38:32;;;;;;;3.50;2.42;;;;;;;19.57;42.08;98566.28;4474735;32;20418;-72
2022/04/26 13:41:00;;;;;;;6.18;3.15;;;;;;;19.58;43.10;98557.31;4474947;31;20123;-71
2022/04/26 13:43:27;;;;;;;3.87;3.03;;;;;;;19.40;42.91;98565.03;4477645;32;20168;-71
2022/04/26 13:46:14;;;;;;;5.12;2.40;;;;;;;19.01;43.19;98558.53;4475944;32;20100;-72
2022/04/26 13:48:42;;;;;;;7.40;2.70;;;;;;;19.13;43.33;98559.59;4482387;32;20108;-72
2022/04/26 13:51:09;;;;;;;4.00;2.08;;;;;;;19.19;43.48;98561.47;4479746;31;20114;-72
2022/04/26 13:53:36;;;;;;;3.30;2.37;;;;;;;18.96;43.76;98557.28;4473946;32;20112;-72
2022/04/26 13:56:06;;;;;;;4.78;3.10;;;;;;;18.88;43.43;98556.59;4469570;32;20206;-71
2022/04/26 13:58:34;;;;;;;4.03;2.80;;;;;;;18.65;43.49;98555.03;4478227;32;20515;-72
2022/04/26 14:01:01;;;;;;;5.07;2.50;;;;;;;18.47;44.39;98549.41;4477317;31;20115;-71
2022/04/26 14:03:28;;;;;;;15.73;2.75;;;;;;;18.46;44.63;98559.19;4474996;32;20177;-72
2022/04/26 14:05:57;;;;;;;6.25;2.30;;;;;;;18.44;44.25;98561.22;4480923;31;20507;-72
2022/04/26 14:08:24;;;;;;;7.37;2.20;;;;;;;18.49;44.43;98558.00;4482303;31;20122;-72
2022/04/26 14:10:51;;;;;;;9.48;2.22;;;;;;;18.26;44.77;98562.50;4474818;32;20112;-72
2022/04/26 14:13:24;;;;;;;8.80;2.53;;;;;;;18.37;46.72;98558.50;4483457;32;20175;-72
2022/04/26 14:24:10;;;;;;;8.73;2.35;;;;;;;18.51;44.66;98556.78;4482609;31;20122;-72
2022/04/26 14:26:41;;;;;;;3.87;2.47;;;;;;;18.67;44.84;98550.34;4476793;32;20096;-72
2022/04/26 14:29:08;;;;;;;8.00;2.37;;;;;;;18.97;44.06;98555.47;4479888;32;20140;-73
2022/04/26 14:31:36;;;;;;;5.65;2.22;;;;;;;19.33;44.20;98547.25;4480058;31;20127;-73
2022/04/26 14:34:03;;;;;;;2.65;2.22;;;;;;;19.45;43.03;98552.78;4479451;32;20459;-71
2022/04/26 14:36:30;;;;;;;2.80;2.10;;;;;;;19.81;41.92;98542.88;4481907;31;20101;-71
2022/04/26 14:39:18;;;;;;;2.37;2.10;;;;;;;20.27;42.86;98544.72;4484197;32;20084;-72
2022/04/26 14:41:45;;;;;;;3.30;2.37;;;;;;;20.40;42.10;98538.59;4482010;32;20119;-71
2022/04/26 14:44:12;;;;;;;4.72;2.87;;;;;;;20.83;41.22;98539.97;4478807;31;20139;-72
2022/04/26 14:46:40;;;;;;;2.92;2.00;;;;;;;21.11;41.59;98544.19;4483742;31;20134;-71
2022/04/26 14:49:08;;;;;;;3.47;2.42;;;;;;;20.87;39.48;98538.53;4479874;32;20592;-70
2022/04/26 14:51:35;;;;;;;3.12;2.08;;;;;;;21.08;40.39;98540.91;4476218;31;21981;-72
2022/04/26 14:54:03;;;;;;;2.40;2.17;;;;;;;21.04;40.25;98538.88;4480543;32;20147;-70
2022/04/26 14:56:30;;;;;;;3.78;2.15;;;;;;;20.81;38.16;98542.03;4473660;32;20104;-71
2022/04/26 14:59:16;;;;;;;4.45;2.33;;;;;;;20.55;38.71;98535.72;4471032;32;20126;-72
2022/04/26 15:01:48;;;;;;;2.37;2.00;;;;;;;20.58;38.73;98535.28;4481738;31;20092;-71
2022/04/26 15:04:17;;;;;;;2.03;1.70;;;;;;;20.47;39.13;98539.41;4469422;32;20093;-72
2022/04/26 15:06:45;;;;;;;5.10;2.05;;;;;;;20.70;39.17;98538.97;4480132;32;20108;-71
2022/04/26 15:17:31;;;;;;;3.20;2.10;;;;;;;20.91;39.23;98529.09;4468375;32;20126;-71
2022/04/26 15:20:02;;;;;;;2.80;2.03;;;;;;;20.73;39.30;98527.91;4474021;32;20088;-72
2022/04/26 15:22:30;;;;;;;6.78;1.95;;;;;;;20.63;39.05;98524.81;4473415;31;20425;-71
2022/04/26 15:24:57;;;;;;;3.37;2.00;;;;;;;20.78;39.36;98524.63;4467988;31;20168;-71
2022/04/26 15:27:25;;;;;;;2.33;2.00;;;;;;;20.54;38.78;98520.75;4489830;31;20126;-72
2022/04/26 15:29:52;;;;;;;2.45;2.20;;;;;;;20.43;38.61;98524.06;4489106;31;20587;-72
2022/04/26 15:32:23;;;;;;;2.83;2.53;;;;;;;19.74;39.08;98513.59;4479147;31;20151;-72
2022/04/26 15:34:50;;;;;;;3.58;1.80;;;;;;;19.71;40.30;98519.31;4481466;31;20103;-72
2022/04/26 15:37:17;;;;;;;3.55;2.28;;;;;;;19.97;39.86;98507.94;4475859;31;20113;-71
2022/04/26 15:39:47;;;;;;;2.25;1.80;;;;;;;19.59;40.39;98507.63;4468445;32;20234;-71
2022/04/26 15:42:18;;;;;;;2.22;1.90;;;;;;;19.42;40.98;98515.16;4478495;32;20836;-72
2022/04/26 15:44:46;;;;;;;2.58;2.00;;;;;;;19.55;39.94;98509.88;4484087;32;20097;-70
2022/04/26 15:47:13;;;;;;;2.53;2.12;;;;;;;19.85;39.55;98510.38;4485565;31;20088;-71
2022/04/26 15:49:41;;;;;;;2.92;2.03;;;;;;;20.01;40.79;98510.97;4485258;31;20112;-71
2022/04/26 15:52:08;;;;;;;3.33;2.20;;;;;;;19.68;40.29;98507.25;4484573;32;20158;-71
2022/04/26 15:54:36;;;;;;;2.58;2.35;;;;;;;19.53;41.17;98519.91;4482295;31;20235;-71
2022/04/26 15:57:04;;;;;;;2.50;2.17;;;;;;;19.20;41.91;98517.97;4470389;32;20466;-71